sensor_id;sensor_type;location;lat;lon;timestamp;pressure;altitude;pressure_sealevel;temperature;humidity
3122;BME280;1571;52.524;14.104;2023-02-02T00:01:26;100125.88;;;3.78;99.22
3122;BME280;1571;52.524;14.104;2023-02-02T00:03:55;100130.94;;;3.82;99.38
3122;BME280;1571;52.524;14.104;2023-02-02T00:06:25;100127.81;;;3.74;98.68
3122;BME280;1571;52.524;14.104;2023-02-02T00:08:56;100136.25;;;3.81;99.10
3122;BME280;1571;52.524;14.104;2023-02-02T00:11:25;100132.44;;;3.88;98.77
3122;BME280;1571;52.524;14.104;2023-02-02T00:13:54;100124.47;;;3.89;98.75
3122;BME280;1571;52.524;14.104;2023-02-02T00:16:39;100126.47;;;3.84;98.69
3122;BME280;1571;52.524;14.104;2023-02-02T00:19:11;100107.28;;;3.82;98.35
3122;BME280;1571;52.524;14.104;2023-02-02T00:21:39;100092.31;;;3.84;98.59
3122;BME280;1571;52.524;14.104;2023-02-02T00:24:10;100095.78;;;3.85;98.76
3122;BME280;1571;52.524;14.104;2023-02-02T00:26:40;100105.19;;;3.90;98.74
3122;BME280;1571;52.524;14.104;2023-02-02T00:29:13;100099.22;;;3.87;98.39
3122;BME280;1571;52.524;14.104;2023-02-02T00:31:42;100099.66;;;3.96;98.35
3122;BME280;1571;52.524;14.104;2023-02-02T00:34:11;100086.31;;;4.01;98.04
3122;BME280;1571;52.524;14.104;2023-02-02T00:36:40;100078.66;;;3.96;98.11
3122;BME280;1571;52.524;14.104;2023-02-02T00:39:13;100084.53;;;4.02;97.96
3122;BME280;1571;52.524;14.104;2023-02-02T00:41:41;100077.50;;;4.02;98.07
3122;BME280;1571;52.524;14.104;2023-02-02T00:44:09;100076.81;;;3.99;97.97
3122;BME280;1571;52.524;14.104;2023-02-02T00:46:55;100073.25;;;4.00;97.94
3122;BME280;1571;52.524;14.104;2023-02-02T00:49:24;100070.97;;;4.11;97.90
3122;BME280;1571;52.524;14.104;2023-02-02T00:51:52;100076.50;;;4.05;97.81
3122;BME280;1571;52.524;14.104;2023-02-02T00:54:21;100061.31;;;4.11;97.60
3122;BME280;1571;52.524;14.104;2023-02-02T00:56:49;100069.75;;;4.18;97.07
3122;BME280;1571;52.524;14.104;2023-02-02T00:59:17;100078.38;;;4.22;96.71
3122;BME280;1571;52.524;14.104;2023-02-02T01:01:46;100074.38;;;4.13;96.76
3122;BME280;1571;52.524;14.104;2023-02-02T01:04:14;100076.06;;;4.14;96.65
3122;BME280;1571;52.524;14.104;2023-02-02T01:06:42;100071.41;;;4.21;96.66
3122;BME280;1571;52.524;14.104;2023-02-02T01:09:10;100074.81;;;4.23;96.75
3122;BME280;1571;52.524;14.104;2023-02-02T01:11:40;100077.66;;;4.18;96.97
3122;BME280;1571;52.524;14.104;2023-02-02T01:14:08;100086.47;;;4.17;97.66
3122;BME280;1571;52.524;14.104;2023-02-02T01:16:36;100082.69;;;4.04;98.24
3122;BME280;1571;52.524;14.104;2023-02-02T01:19:04;100077.16;;;4.10;98.37
3122;BME280;1571;52.524;14.104;2023-02-02T01:21:33;100077.22;;;4.08;98.71
3122;BME280;1571;52.524;14.104;2023-02-02T01:24:01;100080.84;;;4.06;99.24
3122;BME280;1571;52.524;14.104;2023-02-02T01:26:30;100077.19;;;3.89;100.00
3122;BME280;1571;52.524;14.104;2023-02-02T01:28:59;100068.38;;;3.92;100.00
3122;BME280;1571;52.524;14.104;2023-02-02T01:31:27;100073.94;;;3.84;100.00
3122;BME280;1571;52.524;14.104;2023-02-02T01:33:56;100078.88;;;3.71;100.00
3122;BME280;1571;52.524;14.104;2023-02-02T01:36:24;100085.28;;;3.66;100.00
3122;BME280;1571;52.524;14.104;2023-02-02T01:38:52;100070.38;;;3.66;100.00
3122;BME280;1571;52.524;14.104;2023-02-02T01:41:24;100077.41;;;3.66;100.00
3122;BME280;1571;52.524;14.104;2023-02-02T01:43:55;100092.50;;;3.61;100.00
3122;BME280;1571;52.524;14.104;2023-02-02T01:46:28;100081.59;;;3.70;100.00
3122;BME280;1571;52.524;14.104;2023-02-02T01:49:02;100084.34;;;3.67;100.00
3122;BME280;1571;52.524;14.104;2023-02-02T01:51:41;100079.22;;;3.64;100.00
3122;BME280;1571;52.524;14.104;2023-02-02T01:54:12;100084.34;;;3.67;100.00
3122;BME280;1571;52.524;14.104;2023-02-02T01:56:45;100090.38;;;3.69;100.00
3122;BME280;1571;52.524;14.104;2023-02-02T01:59:15;100092.22;;;3.67;100.00
3122;BME280;1571;52.524;14.104;2023-02-02T02:01:47;100096.75;;;3.63;100.00
3122;BME280;1571;52.524;14.104;2023-02-02T02:04:16;100095.78;;;3.66;100.00
3122;BME280;1571;52.524;14.104;2023-02-02T02:06:45;100105.34;;;3.67;100.00
3122;BME280;1571;52.524;14.104;2023-02-02T02:09:14;100092.63;;;3.58;100.00
3122;BME280;1571;52.524;14.104;2023-02-02T02:11:42;100081.72;;;3.67;100.00
3122;BME280;1571;52.524;14.104;2023-02-02T02:14:12;100099.19;;;3.68;100.00
3122;BME280;1571;52.524;14.104;2023-02-02T02:17:11;100108.09;;;3.64;100.00
3122;BME280;1571;52.524;14.104;2023-02-02T02:20:20;100094.09;;;3.65;100.00
3122;BME280;1571;52.524;14.104;2023-02-02T02:23:47;100095.72;;;3.67;100.00
3122;BME280;1571;52.524;14.104;2023-02-02T02:26:50;100093.53;;;3.77;100.00
3122;BME280;1571;52.524;14.104;2023-02-02T02:29:33;100113.53;;;3.80;100.00
3122;BME280;1571;52.524;14.104;2023-02-02T02:32:28;100124.78;;;3.83;100.00
3122;BME280;1571;52.524;14.104;2023-02-02T02:35:04;100116.16;;;3.80;100.00
3122;BME280;1571;52.524;14.104;2023-02-02T02:37:38;100112.53;;;3.82;100.00
3122;BME280;1571;52.524;14.104;2023-02-02T02:40:16;100099.78;;;3.93;100.00
3122;BME280;1571;52.524;14.104;2023-02-02T02:42:51;100120.69;;;3.96;100.00
3122;BME280;1571;52.524;14.104;2023-02-02T02:45:24;100128.63;;;3.95;100.00
3122;BME280;1571;52.524;14.104;2023-02-02T02:47:56;100139.97;;;3.95;100.00
3122;BME280;1571;52.524;14.104;2023-02-02T02:50:25;100154.03;;;3.94;100.00
3122;BME280;1571;52.524;14.104;2023-02-02T02:52:59;100155.47;;;4.02;100.00
3122;BME280;1571;52.524;14.104;2023-02-02T02:55:36;100158.72;;;4.07;100.00
3122;BME280;1571;52.524;14.104;2023-02-02T02:58:08;100159.88;;;4.01;100.00
3122;BME280;1571;52.524;14.104;2023-02-02T03:00:46;100157.63;;;4.12;100.00
3122;BME280;1571;52.524;14.104;2023-02-02T03:03:25;100150.63;;;4.11;100.00
3122;BME280;1571;52.524;14.104;2023-02-02T03:06:02;100165.41;;;4.14;100.00
3122;BME280;1571;52.524;14.104;2023-02-02T03:08:36;100178.06;;;4.25;100.00
3122;BME280;1571;52.524;14.104;2023-02-02T03:11:08;100174.91;;;4.16;100.00
3122;BME280;1571;52.524;14.104;2023-02-02T03:13:39;100185.03;;;4.26;100.00
3122;BME280;1571;52.524;14.104;2023-02-02T03:16:08;100192.34;;;4.19;100.00
3122;BME280;1571;52.524;14.104;2023-02-02T03:18:38;100183.09;;;4.29;100.00
3122;BME280;1571;52.524;14.104;2023-02-02T03:21:10;100186.88;;;4.24;100.00
3122;BME280;1571;52.524;14.104;2023-02-02T03:23:38;100194.41;;;4.31;100.00
3122;BME280;1571;52.524;14.104;2023-02-02T03:26:06;100186.56;;;4.30;100.00
3122;BME280;1571;52.524;14.104;2023-02-02T03:28:35;100193.56;;;4.31;100.00
3122;BME280;1571;52.524;14.104;2023-02-02T03:31:03;100203.13;;;4.32;100.00
3122;BME280;1571;52.524;14.104;2023-02-02T03:33:34;100214.69;;;4.28;100.00
3122;BME280;1571;52.524;14.104;2023-02-02T03:36:05;100212.81;;;4.31;100.00
3122;BME280;1571;52.524;14.104;2023-02-02T03:38:34;100207.50;;;4.33;100.00
3122;BME280;1571;52.524;14.104;2023-02-02T03:41:03;100216.28;;;4.32;100.00
3122;BME280;1571;52.524;14.104;2023-02-02T03:43:31;100215.22;;;4.36;100.00
3122;BME280;1571;52.524;14.104;2023-02-02T03:46:01;100219.63;;;4.35;100.00
3122;BME280;1571;52.524;14.104;2023-02-02T03:48:34;100214.38;;;4.35;100.00
3122;BME280;1571;52.524;14.104;2023-02-02T03:51:08;100225.63;;;4.39;100.00
3122;BME280;1571;52.524;14.104;2023-02-02T03:53:38;100240.72;;;4.34;100.00
3122;BME280;1571;52.524;14.104;2023-02-02T03:56:06;100247.75;;;4.33;100.00
3122;BME280;1571;52.524;14.104;2023-02-02T03:58:35;100248.59;;;4.34;100.00
3122;BME280;1571;52.524;14.104;2023-02-02T04:01:04;100257.63;;;4.28;100.00
3122;BME280;1571;52.524;14.104;2023-02-02T04:03:33;100259.31;;;4.29;100.00
3122;BME280;1571;52.524;14.104;2023-02-02T04:06:01;100263.00;;;4.25;100.00
3122;BME280;1571;52.524;14.104;2023-02-02T04:08:30;100262.72;;;4.31;100.00
3122;BME280;1571;52.524;14.104;2023-02-02T04:11:00;100272.34;;;4.32;100.00
3122;BME280;1571;52.524;14.104;2023-02-02T04:13:28;100285.84;;;4.23;100.00
3122;BME280;1571;52.524;14.104;2023-02-02T04:15:57;100285.47;;;4.32;100.00
3122;BME280;1571;52.524;14.104;2023-02-02T04:18:26;100290.19;;;4.24;100.00
3122;BME280;1571;52.524;14.104;2023-02-02T04:20:56;100299.00;;;4.23;100.00
3122;BME280;1571;52.524;14.104;2023-02-02T04:23:25;100294.88;;;4.17;100.00
3122;BME280;1571;52.524;14.104;2023-02-02T04:25:56;100312.41;;;4.17;100.00
3122;BME280;1571;52.524;14.104;2023-02-02T04:28:25;100295.00;;;4.14;100.00
3122;BME280;1571;52.524;14.104;2023-02-02T04:30:55;100300.78;;;4.23;100.00
3122;BME280;1571;52.524;14.104;2023-02-02T04:33:25;100327.25;;;4.18;100.00
3122;BME280;1571;52.524;14.104;2023-02-02T04:35:53;100335.00;;;4.21;100.00
3122;BME280;1571;52.524;14.104;2023-02-02T04:38:21;100324.22;;;4.27;100.00
3122;BME280;1571;52.524;14.104;2023-02-02T04:40:50;100349.91;;;4.21;100.00
3122;BME280;1571;52.524;14.104;2023-02-02T04:43:19;100343.94;;;4.17;100.00
3122;BME280;1571;52.524;14.104;2023-02-02T04:45:53;100355.63;;;4.10;100.00
3122;BME280;1571;52.524;14.104;2023-02-02T04:48:21;100356.78;;;4.03;100.00
3122;BME280;1571;52.524;14.104;2023-02-02T04:50:50;100361.19;;;4.02;100.00
3122;BME280;1571;52.524;14.104;2023-02-02T04:53:18;100384.13;;;3.99;100.00
3122;BME280;1571;52.524;14.104;2023-02-02T04:55:46;100381.59;;;3.95;100.00
3122;BME280;1571;52.524;14.104;2023-02-02T04:58:14;100390.78;;;3.85;100.00
3122;BME280;1571;52.524;14.104;2023-02-02T05:00:44;100389.28;;;3.78;100.00
3122;BME280;1571;52.524;14.104;2023-02-02T05:03:12;100387.72;;;3.74;100.00
3122;BME280;1571;52.524;14.104;2023-02-02T05:05:40;100403.59;;;3.71;100.00
3122;BME280;1571;52.524;14.104;2023-02-02T05:08:08;100400.97;;;3.71;100.00
3122;BME280;1571;52.524;14.104;2023-02-02T05:10:39;100421.25;;;3.67;100.00
3122;BME280;1571;52.524;14.104;2023-02-02T05:13:08;100403.84;;;3.65;100.00
3122;BME280;1571;52.524;14.104;2023-02-02T05:15:36;100414.69;;;3.55;100.00
3122;BME280;1571;52.524;14.104;2023-02-02T05:18:05;100419.69;;;3.62;100.00
3122;BME280;1571;52.524;14.104;2023-02-02T05:20:34;100435.66;;;3.55;100.00
3122;BME280;1571;52.524;14.104;2023-02-02T05:23:02;100435.34;;;3.65;100.00
3122;BME280;1571;52.524;14.104;2023-02-02T05:25:30;100443.44;;;3.59;100.00
3122;BME280;1571;52.524;14.104;2023-02-02T05:27:58;100449.72;;;3.54;100.00
3122;BME280;1571;52.524;14.104;2023-02-02T05:30:26;100453.38;;;3.50;100.00
3122;BME280;1571;52.524;14.104;2023-02-02T05:32:54;100461.47;;;3.44;100.00
3122;BME280;1571;52.524;14.104;2023-02-02T05:35:24;100471.06;;;3.45;100.00
3122;BME280;1571;52.524;14.104;2023-02-02T05:37:52;100471.41;;;3.36;100.00
3122;BME280;1571;52.524;14.104;2023-02-02T05:40:24;100469.69;;;3.35;100.00
3122;BME280;1571;52.524;14.104;2023-02-02T05:42:52;100475.69;;;3.39;100.00
3122;BME280;1571;52.524;14.104;2023-02-02T05:45:20;100466.16;;;3.36;100.00
3122;BME280;1571;52.524;14.104;2023-02-02T05:47:52;100484.16;;;3.22;100.00
3122;BME280;1571;52.524;14.104;2023-02-02T05:50:21;100490.28;;;3.22;100.00
3122;BME280;1571;52.524;14.104;2023-02-02T05:53:02;100500.19;;;3.14;100.00
3122;BME280;1571;52.524;14.104;2023-02-02T05:55:31;100508.38;;;3.05;100.00
3122;BME280;1571;52.524;14.104;2023-02-02T05:57:59;100518.03;;;3.04;100.00
3122;BME280;1571;52.524;14.104;2023-02-02T06:00:27;100512.88;;;3.01;100.00
3122;BME280;1571;52.524;14.104;2023-02-02T06:02:55;100519.59;;;3.08;100.00
3122;BME280;1571;52.524;14.104;2023-02-02T06:05:25;100525.72;;;3.09;100.00
3122;BME280;1571;52.524;14.104;2023-02-02T06:07:53;100533.44;;;3.13;100.00
3122;BME280;1571;52.524;14.104;2023-02-02T06:10:22;100538.44;;;3.20;100.00
3122;BME280;1571;52.524;14.104;2023-02-02T06:12:50;100544.56;;;3.20;100.00
3122;BME280;1571;52.524;14.104;2023-02-02T06:15:19;100551.31;;;3.27;100.00
3122;BME280;1571;52.524;14.104;2023-02-02T06:17:47;100551.28;;;3.29;100.00
3122;BME280;1571;52.524;14.104;2023-02-02T06:20:16;100559.16;;;3.29;100.00
3122;BME280;1571;52.524;14.104;2023-02-02T06:22:48;100564.56;;;3.24;100.00
3122;BME280;1571;52.524;14.104;2023-02-02T06:25:16;100567.22;;;3.23;100.00
3122;BME280;1571;52.524;14.104;2023-02-02T06:27:45;100574.97;;;3.26;100.00
3122;BME280;1571;52.524;14.104;2023-02-02T06:30:15;100588.91;;;3.28;100.00
3122;BME280;1571;52.524;14.104;2023-02-02T06:32:43;100593.94;;;3.34;100.00
3122;BME280;1571;52.524;14.104;2023-02-02T06:35:12;100588.50;;;3.40;100.00
3122;BME280;1571;52.524;14.104;2023-02-02T06:37:40;100593.03;;;3.35;100.00
3122;BME280;1571;52.524;14.104;2023-02-02T06:40:10;100601.84;;;3.32;100.00
3122;BME280;1571;52.524;14.104;2023-02-02T06:42:39;100610.84;;;3.25;100.00
3122;BME280;1571;52.524;14.104;2023-02-02T06:45:10;100606.56;;;3.23;100.00
3122;BME280;1571;52.524;14.104;2023-02-02T06:47:38;100609.09;;;3.26;100.00
3122;BME280;1571;52.524;14.104;2023-02-02T06:50:07;100606.47;;;3.26;100.00
3122;BME280;1571;52.524;14.104;2023-02-02T06:52:35;100589.19;;;3.20;100.00
3122;BME280;1571;52.524;14.104;2023-02-02T06:55:04;100620.69;;;3.19;100.00
3122;BME280;1571;52.524;14.104;2023-02-02T06:57:32;100625.94;;;3.19;100.00
3122;BME280;1571;52.524;14.104;2023-02-02T07:00:01;100616.41;;;3.16;100.00
3122;BME280;1571;52.524;14.104;2023-02-02T07:02:31;100627.97;;;3.10;100.00
3122;BME280;1571;52.524;14.104;2023-02-02T07:04:59;100624.75;;;3.02;100.00
3122;BME280;1571;52.524;14.104;2023-02-02T07:07:30;100631.63;;;3.06;100.00
3122;BME280;1571;52.524;14.104;2023-02-02T07:09:58;100637.63;;;3.08;100.00
3122;BME280;1571;52.524;14.104;2023-02-02T07:12:27;100638.13;;;3.20;100.00
3122;BME280;1571;52.524;14.104;2023-02-02T07:14:55;100646.75;;;3.25;100.00
3122;BME280;1571;52.524;14.104;2023-02-02T07:17:25;100656.13;;;3.32;100.00
3122;BME280;1571;52.524;14.104;2023-02-02T07:19:54;100651.69;;;3.34;100.00
3122;BME280;1571;52.524;14.104;2023-02-02T07:22:23;100659.50;;;3.36;100.00
3122;BME280;1571;52.524;14.104;2023-02-02T07:24:51;100665.53;;;3.38;100.00
3122;BME280;1571;52.524;14.104;2023-02-02T07:27:19;100674.00;;;3.46;100.00
3122;BME280;1571;52.524;14.104;2023-02-02T07:29:47;100674.84;;;3.46;100.00
3122;BME280;1571;52.524;14.104;2023-02-02T07:32:15;100678.56;;;3.41;100.00
3122;BME280;1571;52.524;14.104;2023-02-02T07:34:44;100676.69;;;3.44;100.00
3122;BME280;1571;52.524;14.104;2023-02-02T07:37:13;100676.44;;;3.52;100.00
3122;BME280;1571;52.524;14.104;2023-02-02T07:39:41;100684.97;;;3.59;100.00
3122;BME280;1571;52.524;14.104;2023-02-02T07:42:10;100689.19;;;3.63;100.00
3122;BME280;1571;52.524;14.104;2023-02-02T07:44:40;100691.81;;;3.63;100.00
3122;BME280;1571;52.524;14.104;2023-02-02T07:47:08;100689.84;;;3.69;100.00
3122;BME280;1571;52.524;14.104;2023-02-02T07:49:36;100692.50;;;3.68;100.00
3122;BME280;1571;52.524;14.104;2023-02-02T07:52:05;100688.97;;;3.69;100.00
3122;BME280;1571;52.524;14.104;2023-02-02T07:54:34;100691.75;;;3.64;100.00
3122;BME280;1571;52.524;14.104;2023-02-02T07:57:02;100687.94;;;3.73;100.00
3122;BME280;1571;52.524;14.104;2023-02-02T07:59:31;100687.69;;;3.81;100.00
3122;BME280;1571;52.524;14.104;2023-02-02T08:01:59;100691.06;;;3.84;100.00
3122;BME280;1571;52.524;14.104;2023-02-02T08:04:27;100696.31;;;3.84;100.00
3122;BME280;1571;52.524;14.104;2023-02-02T08:06:56;100703.00;;;3.93;100.00
3122;BME280;1571;52.524;14.104;2023-02-02T08:09:24;100709.22;;;3.90;100.00
3122;BME280;1571;52.524;14.104;2023-02-02T08:11:54;100706.31;;;3.98;100.00
3122;BME280;1571;52.524;14.104;2023-02-02T08:14:27;100706.16;;;4.03;100.00
3122;BME280;1571;52.524;14.104;2023-02-02T08:16:55;100708.69;;;4.06;100.00
3122;BME280;1571;52.524;14.104;2023-02-02T08:19:24;100717.22;;;4.12;100.00
3122;BME280;1571;52.524;14.104;2023-02-02T08:21:52;100723.09;;;4.19;100.00
3122;BME280;1571;52.524;14.104;2023-02-02T08:24:20;100727.78;;;4.11;100.00
3122;BME280;1571;52.524;14.104;2023-02-02T08:26:48;100726.63;;;4.18;100.00
3122;BME280;1571;52.524;14.104;2023-02-02T08:29:18;100729.03;;;4.24;99.78
3122;BME280;1571;52.524;14.104;2023-02-02T08:31:46;100734.13;;;4.29;98.95
3122;BME280;1571;52.524;14.104;2023-02-02T08:34:15;100734.13;;;4.29;97.58
3122;BME280;1571;52.524;14.104;2023-02-02T08:36:43;100741.16;;;4.28;97.37
3122;BME280;1571;52.524;14.104;2023-02-02T08:39:11;100744.00;;;4.22;96.77
3122;BME280;1571;52.524;14.104;2023-02-02T08:41:40;100739.16;;;4.35;96.42
3122;BME280;1571;52.524;14.104;2023-02-02T08:44:11;100755.16;;;4.29;95.19
3122;BME280;1571;52.524;14.104;2023-02-02T08:46:41;100755.78;;;4.35;94.78
3122;BME280;1571;52.524;14.104;2023-02-02T08:49:11;100753.38;;;4.29;94.46
3122;BME280;1571;52.524;14.104;2023-02-02T08:51:40;100775.22;;;4.31;93.76
3122;BME280;1571;52.524;14.104;2023-02-02T08:54:08;100773.97;;;4.42;93.42
3122;BME280;1571;52.524;14.104;2023-02-02T08:56:37;100779.88;;;4.23;93.54
3122;BME280;1571;52.524;14.104;2023-02-02T08:59:05;100783.25;;;4.27;92.84
3122;BME280;1571;52.524;14.104;2023-02-02T09:01:34;100778.25;;;4.44;92.08
3122;BME280;1571;52.524;14.104;2023-02-02T09:04:05;100785.50;;;4.61;90.37
3122;BME280;1571;52.524;14.104;2023-02-02T09:06:36;100790.84;;;4.83;89.17
3122;BME280;1571;52.524;14.104;2023-02-02T09:09:07;100789.00;;;4.85;87.37
3122;BME280;1571;52.524;14.104;2023-02-02T09:11:36;100793.16;;;4.91;86.59
3122;BME280;1571;52.524;14.104;2023-02-02T09:14:05;100804.84;;;4.84;86.65
3122;BME280;1571;52.524;14.104;2023-02-02T09:16:34;100808.63;;;4.53;85.97
3122;BME280;1571;52.524;14.104;2023-02-02T09:19:04;100809.94;;;4.65;85.93
3122;BME280;1571;52.524;14.104;2023-02-02T09:21:32;100818.81;;;4.62;85.86
3122;BME280;1571;52.524;14.104;2023-02-02T09:24:08;100824.91;;;4.63;84.92
3122;BME280;1571;52.524;14.104;2023-02-02T09:26:37;100829.97;;;4.69;85.33
3122;BME280;1571;52.524;14.104;2023-02-02T09:29:07;100836.28;;;4.63;85.11
3122;BME280;1571;52.524;14.104;2023-02-02T09:31:38;100841.31;;;4.69;85.55
3122;BME280;1571;52.524;14.104;2023-02-02T09:34:10;100841.75;;;4.82;85.12
3122;BME280;1571;52.524;14.104;2023-02-02T09:36:39;100839.03;;;4.84;85.21
3122;BME280;1571;52.524;14.104;2023-02-02T09:39:09;100843.09;;;4.92;84.32
3122;BME280;1571;52.524;14.104;2023-02-02T09:42:18;100843.28;;;4.88;84.54
3122;BME280;1571;52.524;14.104;2023-02-02T09:44:58;100842.25;;;4.92;84.24
3122;BME280;1571;52.524;14.104;2023-02-02T09:47:37;100850.94;;;4.94;84.57
3122;BME280;1571;52.524;14.104;2023-02-02T09:50:16;100847.16;;;5.01;84.59
3122;BME280;1571;52.524;14.104;2023-02-02T09:52:49;100851.94;;;4.91;83.81
3122;BME280;1571;52.524;14.104;2023-02-02T09:55:25;100863.41;;;4.89;85.14
3122;BME280;1571;52.524;14.104;2023-02-02T09:58:00;100876.09;;;4.77;85.52
3122;BME280;1571;52.524;14.104;2023-02-02T10:00:37;100900.75;;;4.23;86.80
3122;BME280;1571;52.524;14.104;2023-02-02T10:03:13;100909.75;;;3.89;88.94
3122;BME280;1571;52.524;14.104;2023-02-02T10:05:49;100908.91;;;3.61;90.75
3122;BME280;1571;52.524;14.104;2023-02-02T10:08:25;100903.41;;;3.40;92.95
3122;BME280;1571;52.524;14.104;2023-02-02T10:11:05;100904.94;;;3.47;94.51
3122;BME280;1571;52.524;14.104;2023-02-02T10:13:41;100907.78;;;3.40;95.70
3122;BME280;1571;52.524;14.104;2023-02-02T10:16:13;100907.91;;;3.35;96.99
3122;BME280;1571;52.524;14.104;2023-02-02T10:18:47;100909.19;;;3.22;98.43
3122;BME280;1571;52.524;14.104;2023-02-02T10:21:25;100918.06;;;3.18;99.56
3122;BME280;1571;52.524;14.104;2023-02-02T10:23:56;100903.06;;;3.23;100.00
3122;BME280;1571;52.524;14.104;2023-02-02T10:26:35;100901.94;;;3.00;100.00
3122;BME280;1571;52.524;14.104;2023-02-02T10:29:08;100910.03;;;2.92;100.00
3122;BME280;1571;52.524;14.104;2023-02-02T10:31:47;100907.91;;;3.05;100.00
3122;BME280;1571;52.524;14.104;2023-02-02T10:34:21;100924.44;;;3.09;100.00
3122;BME280;1571;52.524;14.104;2023-02-02T10:37:01;100913.69;;;3.18;100.00
3122;BME280;1571;52.524;14.104;2023-02-02T10:39:44;100915.38;;;3.19;100.00
3122;BME280;1571;52.524;14.104;2023-02-02T10:42:24;100903.91;;;3.23;99.06
3122;BME280;1571;52.524;14.104;2023-02-02T10:44:58;100901.91;;;3.31;97.90
3122;BME280;1571;52.524;14.104;2023-02-02T10:47:29;100907.81;;;3.68;96.14
3122;BME280;1571;52.524;14.104;2023-02-02T10:50:14;100892.69;;;4.03;95.51
3122;BME280;1571;52.524;14.104;2023-02-02T10:52:46;100890.09;;;4.28;94.17
3122;BME280;1571;52.524;14.104;2023-02-02T10:55:20;100900.03;;;4.70;92.77
3122;BME280;1571;52.524;14.104;2023-02-02T10:57:59;100906.44;;;5.11;91.37
3122;BME280;1571;52.524;14.104;2023-02-02T11:00:32;100906.31;;;5.14;89.72
3122;BME280;1571;52.524;14.104;2023-02-02T11:03:02;100912.19;;;4.97;89.23
3122;BME280;1571;52.524;14.104;2023-02-02T11:05:33;100908.88;;;4.92;89.60
3122;BME280;1571;52.524;14.104;2023-02-02T11:08:24;100916.34;;;5.05;89.75
3122;BME280;1571;52.524;14.104;2023-02-02T11:10:57;100915.03;;;5.16;90.18
3122;BME280;1571;52.524;14.104;2023-02-02T11:13:28;100926.97;;;5.25;90.41
3122;BME280;1571;52.524;14.104;2023-02-02T11:16:20;100926.25;;;5.67;90.00
3122;BME280;1571;52.524;14.104;2023-02-02T11:18:49;100924.41;;;5.91;88.54
3122;BME280;1571;52.524;14.104;2023-02-02T11:21:19;100920.78;;;5.72;88.45
3122;BME280;1571;52.524;14.104;2023-02-02T11:23:54;100927.75;;;5.74;86.47
3122;BME280;1571;52.524;14.104;2023-02-02T11:26:24;100934.09;;;5.69;86.47
3122;BME280;1571;52.524;14.104;2023-02-02T11:28:53;100948.03;;;5.49;85.55
3122;BME280;1571;52.524;14.104;2023-02-02T11:31:30;100963.75;;;5.27;86.86
3122;BME280;1571;52.524;14.104;2023-02-02T11:34:19;100999.31;;;4.63;88.52
3122;BME280;1571;52.524;14.104;2023-02-02T11:36:58;101010.34;;;3.01;93.58
3122;BME280;1571;52.524;14.104;2023-02-02T11:39:28;101025.28;;;2.97;99.09
3122;BME280;1571;52.524;14.104;2023-02-02T11:42:01;101033.63;;;2.79;100.00
3122;BME280;1571;52.524;14.104;2023-02-02T11:44:31;101037.81;;;2.86;100.00
3122;BME280;1571;52.524;14.104;2023-02-02T11:47:02;101030.09;;;3.14;100.00
3122;BME280;1571;52.524;14.104;2023-02-02T11:49:36;101028.69;;;3.02;100.00
3122;BME280;1571;52.524;14.104;2023-02-02T11:52:14;101037.88;;;3.17;100.00
3122;BME280;1571;52.524;14.104;2023-02-02T11:54:48;101026.94;;;3.34;100.00
3122;BME280;1571;52.524;14.104;2023-02-02T11:57:18;101039.09;;;3.68;100.00
3122;BME280;1571;52.524;14.104;2023-02-02T11:59:48;101037.50;;;3.62;100.00
3122;BME280;1571;52.524;14.104;2023-02-02T12:02:35;101040.25;;;3.26;100.00
3122;BME280;1571;52.524;14.104;2023-02-02T12:05:33;101033.44;;;3.52;100.00
3122;BME280;1571;52.524;14.104;2023-02-02T12:08:02;101050.59;;;3.64;100.00
3122;BME280;1571;52.524;14.104;2023-02-02T12:10:37;101036.69;;;3.60;100.00
3122;BME280;1571;52.524;14.104;2023-02-02T12:13:13;101032.72;;;3.77;100.00
3122;BME280;1571;52.524;14.104;2023-02-02T12:15:50;101035.03;;;3.87;100.00
3122;BME280;1571;52.524;14.104;2023-02-02T12:18:34;101042.84;;;3.89;100.00
3122;BME280;1571;52.524;14.104;2023-02-02T12:21:09;101031.16;;;3.99;100.00
3122;BME280;1571;52.524;14.104;2023-02-02T12:23:50;101050.28;;;4.04;100.00
3122;BME280;1571;52.524;14.104;2023-02-02T12:26:26;101051.19;;;4.03;100.00
3122;BME280;1571;52.524;14.104;2023-02-02T12:29:16;101052.31;;;4.23;100.00
3122;BME280;1571;52.524;14.104;2023-02-02T12:32:05;101055.72;;;4.26;100.00
3122;BME280;1571;52.524;14.104;2023-02-02T12:34:49;101052.28;;;4.24;100.00
3122;BME280;1571;52.524;14.104;2023-02-02T12:37:29;101053.47;;;4.42;99.13
3122;BME280;1571;52.524;14.104;2023-02-02T12:40:12;101063.44;;;4.32;98.66
3122;BME280;1571;52.524;14.104;2023-02-02T12:42:56;101049.59;;;4.54;97.02
3122;BME280;1571;52.524;14.104;2023-02-02T12:45:50;101059.09;;;4.58;95.98
3122;BME280;1571;52.524;14.104;2023-02-02T12:48:34;101063.22;;;4.38;94.65
3122;BME280;1571;52.524;14.104;2023-02-02T12:51:16;101063.84;;;4.47;94.10
3122;BME280;1571;52.524;14.104;2023-02-02T12:54:03;101075.38;;;4.43;94.45
3122;BME280;1571;52.524;14.104;2023-02-02T12:57:00;101070.44;;;4.60;91.51
3122;BME280;1571;52.524;14.104;2023-02-02T12:59:48;101070.31;;;4.63;90.37
3122;BME280;1571;52.524;14.104;2023-02-02T13:02:26;101074.53;;;4.95;88.68
3122;BME280;1571;52.524;14.104;2023-02-02T13:05:06;101080.09;;;4.86;86.17
3122;BME280;1571;52.524;14.104;2023-02-02T13:07:41;101077.28;;;4.91;85.56
3122;BME280;1571;52.524;14.104;2023-02-02T13:10:20;101082.16;;;5.03;84.29
3122;BME280;1571;52.524;14.104;2023-02-02T13:12:54;101081.31;;;5.28;83.48
3122;BME280;1571;52.524;14.104;2023-02-02T13:15:30;101086.53;;;5.29;82.06
3122;BME280;1571;52.524;14.104;2023-02-02T13:18:02;101077.31;;;5.66;80.96
3122;BME280;1571;52.524;14.104;2023-02-02T13:20:36;101098.78;;;5.30;80.37
3122;BME280;1571;52.524;14.104;2023-02-02T13:23:10;101116.38;;;4.76;79.92
3122;BME280;1571;52.524;14.104;2023-02-02T13:25:44;101127.00;;;4.73;80.17
3122;BME280;1571;52.524;14.104;2023-02-02T13:28:21;101139.88;;;4.25;80.14
3122;BME280;1571;52.524;14.104;2023-02-02T13:30:55;101149.69;;;4.18;79.92
3122;BME280;1571;52.524;14.104;2023-02-02T13:33:27;101155.13;;;4.12;81.19